Time;durP1;ratioP1;P1;durP2;ratioP2;P2;SDS_P1;SDS_P2;PMS_P1;PMS_P2;Temp;Humidity;BMP_temperature;BMP_pressure;BME280_temperature;BME280_humidity;BME280_pressure;Samples;Min_cycle;Max_cycle;Signal;HPM_P1;HPM_P2
2023/12/30 00:02:12;;;;;;;;;8.00;8.00;;;;;14.07;100.00;98353.31;6212753;28;96506;-63
2023/12/30 00:05:16;;;;;;;;;9.00;9.00;;;;;14.04;100.00;98351.09;6193889;28;98792;-63
2023/12/30 00:08:19;;;;;;;;;8.00;8.00;;;;;13.96;100.00;98341.56;6212473;28;96371;-63
2023/12/30 00:11:23;;;;;;;;;8.00;8.00;;;;;13.87;100.00;98343.94;6212731;28;96437;-63
2023/12/30 00:14:27;;;;;;;;;6.00;6.00;;;;;13.77;100.00;98340.28;6223983;28;96796;-63
2023/12/30 00:17:30;;;;;;;;;6.00;6.00;;;;;13.81;100.00;98338.69;6216915;28;96292;-61
2023/12/30 00:20:33;;;;;;;;;5.00;5.00;;;;;13.77;100.00;98335.69;6241911;27;96900;-63
2023/12/30 00:23:39;;;;;;;;;6.80;6.20;;;;;13.77;100.00;98327.56;6242278;28;96872;-63
2023/12/30 00:26:48;;;;;;;;;7.00;7.00;;;;;13.74;100.00;98333.47;6241482;27;96671;-64
2023/12/30 00:29:52;;;;;;;;;6.60;5.40;;;;;13.66;100.00;98342.06;6241217;28;98527;-64
2023/12/30 00:32:55;;;;;;;;;7.00;7.00;;;;;13.67;100.00;98340.19;6224024;27;98429;-63
2023/12/30 00:35:58;;;;;;;;;5.60;5.00;;;;;13.71;100.00;98338.59;6224653;27;96328;-64
2023/12/30 00:39:02;;;;;;;;;6.40;6.40;;;;;13.73;100.00;98339.19;6253491;27;97517;-63
2023/12/30 00:42:05;;;;;;;;;5.00;5.00;;;;;13.68;100.00;98331.78;6228606;28;96533;-63
2023/12/30 00:45:10;;;;;;;;;9.00;8.00;;;;;13.75;100.00;98345.97;6242013;28;96369;-63
2023/12/30 00:48:13;;;;;;;;;6.00;5.25;;;;;13.76;100.00;98336.75;6216603;28;96324;-63
2023/12/30 00:51:17;;;;;;;;;6.00;5.40;;;;;13.71;100.00;98342.13;6217780;28;96527;-63
2023/12/30 00:54:20;;;;;;;;;6.40;5.60;;;;;13.77;100.00;98333.00;6207061;28;98389;-61
2023/12/30 00:57:23;;;;;;;;;7.00;7.00;;;;;13.67;100.00;98337.47;6226040;28;96725;-64
2023/12/30 01:00:27;;;;;;;;;8.00;7.00;;;;;13.73;100.00;98342.66;6210727;28;96812;-64
2023/12/30 01:03:30;;;;;;;;;5.60;5.60;;;;;13.76;100.00;98339.47;6247980;27;96329;-63
2023/12/30 01:06:33;;;;;;;;;7.00;7.00;;;;;13.82;100.00;98346.59;6266941;27;96453;-63
2023/12/30 01:09:36;;;;;;;;;8.00;8.00;;;;;13.86;100.00;98342.28;6251495;28;98579;-64
2023/12/30 01:12:39;;;;;;;;;7.00;7.00;;;;;13.90;100.00;98337.16;6251936;27;96307;-63
2023/12/30 01:15:44;;;;;;;;;8.00;8.00;;;;;13.95;100.00;98328.25;6269219;28;96211;-64
2023/12/30 01:18:48;;;;;;;;;8.00;7.80;;;;;13.98;100.00;98333.97;6251021;27;97650;-64
2023/12/30 01:21:52;;;;;;;;;5.00;5.00;;;;;14.05;100.00;98334.59;6268313;27;96388;-63
2023/12/30 01:24:55;;;;;;;;;7.00;6.50;;;;;14.09;100.00;98324.06;6250938;28;98477;-63
2023/12/30 01:27:58;;;;;;;;;7.40;7.00;;;;;14.12;100.00;98326.25;6243521;28;96542;-59
2023/12/30 01:31:02;;;;;;;;;8.60;7.00;;;;;14.11;100.00;98330.03;6237596;28;96365;-60
2023/12/30 01:34:06;;;;;;;;;7.00;7.00;;;;;14.13;100.00;98320.56;6241428;27;98396;-58
2023/12/30 01:37:10;;;;;;;;;7.00;7.00;;;;;14.16;100.00;98330.91;6253573;28;96730;-58
2023/12/30 01:40:14;;;;;;;;;7.00;6.00;;;;;14.16;100.00;98314.66;6253086;28;96426;-58
2023/12/30 01:43:25;;;;;;;;;5.00;5.00;;;;;14.12;100.00;98307.28;6253025;28;96706;-59
2023/12/30 01:46:32;;;;;;;;;7.60;6.20;;;;;14.15;100.00;98304.88;6236108;28;96279;-58
2023/12/30 01:49:35;;;;;;;;;6.00;5.50;;;;;14.15;100.00;98296.75;6254456;28;96214;-58
2023/12/30 01:52:39;;;;;;;;;8.75;6.75;;;;;14.07;100.00;98293.69;6251800;28;96848;-57
2023/12/30 01:55:42;;;;;;;;;6.75;5.25;;;;;14.08;100.00;98289.88;6239581;28;97773;-58
2023/12/30 01:58:45;;;;;;;;;7.00;6.00;;;;;14.02;100.00;98280.09;6210102;28;98553;-58
2023/12/30 02:01:50;;;;;;;;;7.00;7.00;;;;;13.86;100.00;98279.97;6228963;28;97024;-63
2023/12/30 02:04:53;;;;;;;;;7.60;7.60;;;;;13.87;100.00;98278.06;6313874;22;97170;-55
2023/12/30 02:07:58;;;;;;;;;6.00;5.50;;;;;13.84;100.00;98273.16;6240323;28;96296;-54
2023/12/30 02:11:03;;;;;;;;;5.00;5.00;;;;;13.83;100.00;98269.63;6241271;28;96413;-54
2023/12/30 02:14:25;;;;;;;;;7.00;7.00;;;;;13.81;100.00;98279.91;6241796;28;96542;-54
2023/12/30 02:17:29;;;;;;;;;8.00;6.00;;;;;13.81;100.00;98274.50;6205731;28;98749;-55
2023/12/30 02:20:33;;;;;;;;;7.00;7.00;;;;;13.83;100.00;98274.22;6234844;28;96988;-55
2023/12/30 02:23:38;;;;;;;;;6.80;6.80;;;;;13.75;100.00;98270.09;6223403;28;96391;-55
2023/12/30 02:26:41;;;;;;;;;6.75;6.00;;;;;13.77;100.00;98270.69;6204930;28;97669;-55
2023/12/30 02:29:45;;;;;;;;;7.80;7.80;;;;;13.76;100.00;98270.94;6216696;28;96335;-55
2023/12/30 02:32:48;;;;;;;;;8.40;8.00;;;;;13.78;100.00;98266.88;6221366;28;96863;-55
2023/12/30 02:35:51;;;;;;;;;6.00;6.00;;;;;13.80;100.00;98270.16;6241815;28;96633;-55
2023/12/30 02:38:57;;;;;;;;;8.00;7.00;;;;;13.80;100.00;98269.31;6240846;28;96923;-55
2023/12/30 02:42:01;;;;;;;;;6.80;6.80;;;;;13.80;100.00;98272.03;6223730;28;96338;-55
2023/12/30 02:45:06;;;;;;;;;7.00;7.00;;;;;13.87;100.00;98272.66;6240106;28;96247;-55
2023/12/30 02:48:10;;;;;;;;;7.00;7.00;;;;;13.87;100.00;98275.38;6226789;28;96172;-55
2023/12/30 02:51:15;;;;;;;;;6.00;5.00;;;;;13.86;100.00;98277.25;6240914;28;96310;-54
2023/12/30 02:54:19;;;;;;;;;6.50;6.50;;;;;13.64;100.00;98238.56;6222401;28;96819;-55
2023/12/30 02:57:25;;;;;;;;;7.00;7.00;;;;;13.79;100.00;98262.28;6219074;28;96293;-55
2023/12/30 03:00:28;;;;;;;;;8.40;8.40;;;;;13.76;100.00;98247.38;6216912;28;96299;-54
2023/12/30 03:03:31;;;;;;;;;5.40;5.00;;;;;13.68;100.00;98261.34;6215179;28;96579;-54
2023/12/30 03:06:35;;;;;;;;;9.00;9.00;;;;;13.72;100.00;98251.66;6181402;28;96433;-55
2023/12/30 03:09:40;;;;;;;;;8.00;8.00;;;;;13.65;100.00;98242.91;6212603;28;98824;-54
2023/12/30 03:12:43;;;;;;;;;8.00;7.00;;;;;13.55;100.00;98232.00;6215278;28;96333;-54
2023/12/30 03:15:46;;;;;;;;;7.00;6.80;;;;;13.61;100.00;98240.97;6241460;28;96982;-56
2023/12/30 03:18:49;;;;;;;;;5.75;5.75;;;;;13.56;100.00;98247.16;6209625;28;96525;-58
2023/12/30 03:21:53;;;;;;;;;5.00;5.00;;;;;13.56;100.00;98233.63;6155338;28;98370;-58
2023/12/30 03:24:58;;;;;;;;;6.60;6.20;;;;;13.47;100.00;98224.34;6189882;28;96493;-58
2023/12/30 03:28:01;;;;;;;;;6.40;6.40;;;;;13.31;100.00;98198.19;6205476;28;96440;-58
2023/12/30 03:31:06;;;;;;;;;6.00;6.00;;;;;13.50;100.00;98204.03;6198044;28;96344;-58
2023/12/30 03:34:09;;;;;;;;;5.75;5.75;;;;;13.50;100.00;98199.44;6214186;28;96414;-58
2023/12/30 03:37:13;;;;;;;;;7.00;6.00;;;;;13.14;100.00;98146.88;6179570;28;96740;-58
2023/12/30 03:40:17;;;;;;;;;8.00;7.00;;;;;13.47;100.00;98201.84;6214360;28;96394;-58
2023/12/30 03:43:20;;;;;;;;;6.20;6.20;;;;;13.44;100.00;98214.00;6213978;28;96379;-58
2023/12/30 03:46:24;;;;;;;;;6.00;6.00;;;;;13.54;100.00;98197.84;6213667;28;96179;-58
2023/12/30 03:49:27;;;;;;;;;9.60;8.60;;;;;13.56;100.00;98203.84;6214464;28;96583;-58
2023/12/30 03:52:30;;;;;;;;;6.00;6.00;;;;;13.57;100.00;98200.06;6214180;28;96422;-58
2023/12/30 03:55:35;;;;;;;;;6.20;6.00;;;;;13.47;100.00;98197.25;6207215;28;96702;-58
2023/12/30 03:58:38;;;;;;;;;6.00;5.00;;;;;13.51;100.00;98208.38;6170118;28;98414;-58
2023/12/30 04:01:42;;;;;;;;;8.00;7.00;;;;;13.45;100.00;98208.34;6214057;28;96411;-58
2023/12/30 04:04:45;;;;;;;;;7.00;7.00;;;;;13.49;100.00;98215.97;6213432;28;96423;-58
2023/12/30 04:07:48;;;;;;;;;7.00;7.00;;;;;13.46;100.00;98230.81;6211531;28;97071;-58
2023/12/30 04:10:53;;;;;;;;;5.00;5.00;;;;;13.53;100.00;98219.78;6211072;28;97305;-58
2023/12/30 04:13:56;;;;;;;;;5.00;5.00;;;;;13.44;100.00;98224.84;6194236;28;96643;-58
2023/12/30 04:16:59;;;;;;;;;9.00;7.00;;;;;13.44;100.00;98227.53;6211651;28;97041;-58
2023/12/30 04:20:03;;;;;;;;;6.00;6.00;;;;;13.44;100.00;98233.78;6195356;28;96250;-58
2023/12/30 04:23:06;;;;;;;;;7.00;6.60;;;;;13.47;100.00;98227.06;6212206;28;97151;-58
2023/12/30 04:26:11;;;;;;;;;8.40;7.00;;;;;13.56;100.00;98227.41;6193300;28;97429;-58
2023/12/30 04:29:14;;;;;;;;;7.00;6.20;;;;;13.50;100.00;98226.53;6209426;28;96546;-55
2023/12/30 04:32:17;;;;;;;;;7.40;6.40;;;;;13.52;100.00;98221.69;6237330;28;96260;-56
2023/12/30 04:35:20;;;;;;;;;7.00;6.40;;;;;13.41;100.00;98214.53;6220665;28;99506;-55
2023/12/30 04:38:23;;;;;;;;;5.00;5.00;;;;;13.47;100.00;98212.69;6237670;28;96396;-55
2023/12/30 04:41:27;;;;;;;;;7.25;6.25;;;;;13.36;100.00;98201.75;6236451;28;97000;-55
2023/12/30 04:44:31;;;;;;;;;7.00;7.00;;;;;13.35;100.00;98208.25;6238212;28;96497;-56
2023/12/30 04:47:34;;;;;;;;;4.00;4.00;;;;;13.28;100.00;98207.66;6219126;28;96309;-55
2023/12/30 04:50:37;;;;;;;;;5.50;5.50;;;;;13.29;100.00;98222.00;6232380;28;96809;-55
2023/12/30 04:53:40;;;;;;;;;5.75;5.75;;;;;13.28;100.00;98218.47;6237447;28;96400;-57
2023/12/30 04:56:44;;;;;;;;;6.75;6.75;;;;;13.31;100.00;98222.53;6237373;28;96307;-56
2023/12/30 04:59:47;;;;;;;;;5.60;5.00;;;;;13.29;100.00;98222.78;6219849;28;96517;-55
2023/12/30 05:02:50;;;;;;;;;6.75;6.25;;;;;13.26;100.00;98219.78;6240065;28;96352;-55
2023/12/30 05:05:55;;;;;;;;;4.60;4.60;;;;;13.32;100.00;98230.41;6238337;28;96358;-55
2023/12/30 05:09:00;;;;;;;;;7.00;7.00;;;;;13.29;100.00;98233.63;6236891;28;96419;-55
2023/12/30 05:12:06;;;;;;;;;5.80;5.00;;;;;13.27;100.00;98226.84;6237224;28;96359;-55
2023/12/30 05:15:12;;;;;;;;;4.00;4.00;;;;;13.28;100.00;98232.00;6237536;28;96328;-54
2023/12/30 05:18:16;;;;;;;;;7.60;7.60;;;;;13.32;100.00;98233.13;6215140;28;96361;-55
2023/12/30 05:21:19;;;;;;;;;7.20;7.00;;;;;13.32;100.00;98235.84;6235687;28;96264;-55
2023/12/30 05:24:22;;;;;;;;;5.75;5.25;;;;;13.30;100.00;98247.97;6233144;28;96299;-56
2023/12/30 05:27:26;;;;;;;;;6.00;6.00;;;;;13.24;100.00;98238.97;6231249;28;96660;-55
2023/12/30 05:30:30;;;;;;;;;5.00;5.00;;;;;13.28;100.00;98247.44;6238072;28;96324;-55
2023/12/30 05:33:33;;;;;;;;;5.80;5.80;;;;;13.21;100.00;98257.63;6237934;28;96301;-55
2023/12/30 05:36:37;;;;;;;;;6.00;5.80;;;;;13.17;100.00;98245.69;6234418;28;96422;-55
2023/12/30 05:39:40;;;;;;;;;7.00;6.00;;;;;13.19;100.00;98252.47;6199525;28;96584;-59
2023/12/30 05:42:45;;;;;;;;;6.80;6.80;;;;;13.15;100.00;98255.94;6209743;28;97364;-59
2023/12/30 05:45:48;;;;;;;;;6.00;6.00;;;;;13.18;100.00;98256.25;6193078;28;96565;-59
2023/12/30 05:48:51;;;;;;;;;7.00;6.60;;;;;13.24;100.00;98268.75;6189885;28;96837;-58
2023/12/30 05:51:54;;;;;;;;;5.20;5.20;;;;;13.29;100.00;98281.56;6210196;28;96998;-59
2023/12/30 05:54:57;;;;;;;;;5.00;5.00;;;;;13.30;100.00;98275.03;6212058;28;96414;-59
2023/12/30 05:58:02;;;;;;;;;7.00;6.60;;;;;13.39;100.00;98284.34;6207807;28;96248;-58
2023/12/30 06:01:05;;;;;;;;;6.25;5.75;;;;;13.42;100.00;98289.28;6194375;28;96336;-59
2023/12/30 06:04:08;;;;;;;;;7.00;6.00;;;;;13.48;100.00;98288.25;6219075;28;97016;-59
2023/12/30 06:07:11;;;;;;;;;6.00;6.00;;;;;13.43;100.00;98289.03;6236343;28;96878;-59
2023/12/30 06:10:15;;;;;;;;;6.00;6.00;;;;;13.53;100.00;98287.50;6236708;28;96405;-59
2023/12/30 06:13:19;;;;;;;;;5.00;5.00;;;;;13.52;100.00;98292.09;6235015;28;96683;-59
2023/12/30 06:16:22;;;;;;;;;7.00;7.00;;;;;13.53;100.00;98301.03;6234749;28;96955;-59
2023/12/30 06:19:26;;;;;;;;;6.00;5.00;;;;;13.55;100.00;98301.59;6234562;28;96552;-59
2023/12/30 06:22:29;;;;;;;;;5.20;5.20;;;;;13.54;100.00;98311.59;6237447;27;96426;-59
2023/12/30 06:25:33;;;;;;;;;5.00;4.40;;;;;13.55;100.00;98307.00;6220624;28;96505;-59
2023/12/30 06:28:37;;;;;;;;;6.00;4.60;;;;;13.45;100.00;98313.94;6239108;28;96333;-59
2023/12/30 06:31:42;;;;;;;;;4.40;4.40;;;;;13.36;100.00;98298.41;6238663;28;96322;-59
2023/12/30 06:34:45;;;;;;;;;5.60;5.60;;;;;13.46;100.00;98312.06;6240290;28;96627;-59
2023/12/30 06:37:48;;;;;;;;;6.00;5.60;;;;;13.42;100.00;98322.59;6240447;28;96922;-59
2023/12/30 06:40:52;;;;;;;;;5.60;5.60;;;;;13.41;100.00;98312.81;6241139;28;96296;-59
2023/12/30 06:43:56;;;;;;;;;5.00;5.00;;;;;13.41;100.00;98317.41;6222556;28;96597;-59
2023/12/30 06:47:00;;;;;;;;;4.80;4.20;;;;;13.41;100.00;98315.53;6239450;28;96346;-59
2023/12/30 06:50:03;;;;;;;;;4.00;4.00;;;;;13.41;100.00;98317.41;6230836;28;96558;-56
2023/12/30 06:53:07;;;;;;;;;5.00;4.00;;;;;13.39;100.00;98319.53;6245133;28;96273;-56
2023/12/30 06:56:10;;;;;;;;;4.00;4.00;;;;;13.40;100.00;98315.78;6245859;28;96906;-55
2023/12/30 06:59:14;;;;;;;;;4.00;4.00;;;;;13.41;100.00;98317.41;6245921;28;96383;-56
2023/12/30 07:02:17;;;;;;;;;4.00;4.00;;;;;13.42;100.00;98324.47;6245366;28;96282;-56
2023/12/30 07:05:21;;;;;;;;;6.00;6.00;;;;;13.41;100.00;98333.66;6244584;28;96167;-56
2023/12/30 07:08:24;;;;;;;;;6.20;5.20;;;;;13.42;100.00;98325.28;6245839;28;96395;-56
2023/12/30 07:11:28;;;;;;;;;5.00;5.00;;;;;13.50;100.00;98336.72;6228372;28;96204;-56
2023/12/30 07:14:34;;;;;;;;;6.40;6.00;;;;;13.59;100.00;98330.59;6227805;28;99148;-56
2023/12/30 07:17:37;;;;;;;;;5.40;5.40;;;;;13.72;100.00;98346.47;6245398;28;96375;-56
2023/12/30 07:20:40;;;;;;;;;6.67;6.67;;;;;13.79;100.00;98354.38;6243824;28;96558;-56
2023/12/30 07:23:43;;;;;;;;;6.00;5.00;;;;;13.95;100.00;98358.91;6244203;28;96232;-55
2023/12/30 07:26:47;;;;;;;;;7.00;6.00;;;;;14.05;100.00;98350.03;6242989;28;96453;-57
2023/12/30 07:29:51;;;;;;;;;6.40;6.00;;;;;14.15;100.00;98339.28;6245022;28;96768;-56
2023/12/30 07:32:54;;;;;;;;;5.25;5.25;;;;;14.24;100.00;98359.44;6227345;28;97068;-56
2023/12/30 07:35:58;;;;;;;;;5.00;5.00;;;;;14.35;100.00;98344.88;6245188;28;96939;-56
2023/12/30 07:39:01;;;;;;;;;6.00;6.00;;;;;14.45;100.00;98338.75;6245061;28;96354;-56
2023/12/30 07:42:04;;;;;;;;;6.40;6.40;;;;;14.41;100.00;98321.38;6245024;28;96215;-56
2023/12/30 07:45:10;;;;;;;;;7.00;6.00;;;;;14.47;100.00;98317.59;6244308;28;96244;-55
2023/12/30 07:48:13;;;;;;;;;4.80;4.80;;;;;14.53;100.00;98322.81;6245081;28;96400;-55
2023/12/30 07:51:16;;;;;;;;;5.00;5.00;;;;;14.58;100.00;98330.16;6244083;28;96619;-56
2023/12/30 07:54:19;;;;;;;;;5.40;5.40;;;;;14.57;100.00;98334.78;6244523;28;96841;-56
2023/12/30 07:57:22;;;;;;;;;4.00;4.00;;;;;14.58;100.00;98341.84;6244876;28;96274;-55
2023/12/30 08:00:27;;;;;;;;;6.60;6.00;;;;;14.71;100.00;98351.41;6227142;28;96812;-59
2023/12/30 08:03:30;;;;;;;;;5.00;5.00;;;;;14.89;100.00;98348.28;6217887;28;96371;-59
2023/12/30 08:06:33;;;;;;;;;6.00;5.00;;;;;14.87;100.00;98338.75;6231209;28;96400;-59
2023/12/30 08:09:37;;;;;;;;;6.00;5.33;;;;;14.94;100.00;98342.06;6213971;28;97003;-59
2023/12/30 08:12:40;;;;;;;;;5.00;4.00;;;;;14.86;100.00;98350.69;6213614;28;97541;-59
2023/12/30 08:15:45;;;;;;;;;6.00;4.60;;;;;14.98;100.00;98346.72;6213784;28;96476;-59
2023/12/30 08:18:48;;;;;;;;;5.00;4.40;;;;;15.00;100.00;98341.03;6213929;28;96380;-59
2023/12/30 08:21:51;;;;;;;;;7.00;6.00;;;;;14.94;100.00;98352.94;6195248;28;97832;-59
2023/12/30 08:24:54;;;;;;;;;4.80;4.80;;;;;14.90;100.00;98357.25;6213535;28;96418;-59
2023/12/30 08:27:58;;;;;;;;;5.00;5.00;;;;;14.88;100.00;98351.25;6213417;28;97004;-59
2023/12/30 08:31:03;;;;;;;;;6.40;6.40;;;;;14.95;100.00;98349.97;6213426;28;96300;-59
2023/12/30 08:34:07;;;;;;;;;5.00;5.00;;;;;15.65;100.00;98355.97;6213747;28;96347;-59
2023/12/30 08:37:10;;;;;;;;;4.00;4.00;;;;;17.57;100.00;98348.50;6217549;28;96388;-59
2023/12/30 08:40:14;;;;;;;;;6.00;5.00;;;;;19.04;100.00;98356.44;6238530;28;96377;-59
2023/12/30 08:43:17;;;;;;;;;4.00;4.00;;;;;20.60;100.00;98349.16;6217482;28;96345;-59
2023/12/30 08:46:22;;;;;;;;;6.60;5.60;;;;;22.37;100.00;98362.06;6213388;28;96490;-59
2023/12/30 08:49:25;;;;;;;;;4.67;4.00;;;;;23.53;100.00;98359.06;6213074;28;96341;-59
2023/12/30 08:52:28;;;;;;;;;4.40;4.40;;;;;24.66;95.30;98351.72;6213224;28;96458;-59
2023/12/30 08:55:32;;;;;;;;;3.60;3.00;;;;;25.53;88.82;98344.81;6194905;28;96645;-60
2023/12/30 08:58:35;;;;;;;;;4.00;4.00;;;;;27.02;83.76;98366.00;6195427;28;96384;-60
2023/12/30 09:01:39;;;;;;;;;5.00;4.00;;;;;28.94;74.77;98355.38;6218627;28;97214;-60
2023/12/30 09:04:43;;;;;;;;;3.00;3.00;;;;;30.26;70.13;98363.88;6237828;28;96909;-60
2023/12/30 09:07:48;;;;;;;;;3.00;2.50;;;;;31.63;68.01;98355.81;6224359;28;96665;-60
2023/12/30 09:10:51;;;;;;;;;4.00;3.00;;;;;32.52;65.07;98363.53;6215848;28;96360;-59
2023/12/30 09:13:54;;;;;;;;;3.50;3.00;;;;;32.81;61.55;98365.53;6212927;28;97530;-59
2023/12/30 09:16:59;;;;;;;;;3.00;3.00;;;;;32.97;61.66;98354.13;6213251;28;96512;-59
2023/12/30 09:20:03;;;;;;;;;2.00;2.00;;;;;33.64;58.57;98370.75;6213154;28;96383;-59
2023/12/30 09:23:07;;;;;;;;;4.40;4.00;;;;;34.49;57.30;98361.00;6213029;28;97115;-59
2023/12/30 09:26:10;;;;;;;;;3.00;2.00;;;;;35.33;57.21;98361.69;6194818;28;98990;-59
2023/12/30 09:29:13;;;;;;;;;2.00;2.00;;;;;35.68;54.34;98355.34;6212878;28;97546;-60
2023/12/30 09:32:17;;;;;;;;;3.00;3.00;;;;;36.20;54.75;98359.28;6212848;28;96357;-61
2023/12/30 09:35:20;;;;;;;;;2.00;1.60;;;;;36.50;53.42;98351.19;6212489;28;96203;-61
2023/12/30 09:38:25;;;;;;;;;1.00;1.00;;;;;36.67;52.59;98367.19;6194279;28;96963;-61
2023/12/30 09:41:31;;;;;;;;;1.00;1.00;;;;;37.35;51.75;98349.94;6212691;28;96922;-61
2023/12/30 09:44:35;;;;;;;;;3.00;2.00;;;;;38.21;49.24;98350.84;6212082;28;96262;-61
2023/12/30 09:47:40;;;;;;;;;1.40;1.40;;;;;38.64;49.03;98346.34;6211321;28;96538;-62
2023/12/30 09:50:44;;;;;;;;;2.00;2.00;;;;;38.22;48.06;98347.59;6212492;28;96410;-62
2023/12/30 09:53:47;;;;;;;;;3.00;3.00;;;;;38.60;48.47;98350.41;6212224;28;96361;-61
2023/12/30 09:56:50;;;;;;;;;3.00;2.75;;;;;38.40;48.13;98330.50;6214507;28;96374;-62
2023/12/30 09:59:56;;;;;;;;;2.00;2.00;;;;;38.25;47.77;98329.88;6198910;28;96216;-61
2023/12/30 10:03:02;;;;;;;;;3.00;2.00;;;;;38.20;47.26;98332.34;6216945;28;96480;-61
2023/12/30 10:06:06;;;;;;;;;2.00;2.00;;;;;38.24;47.83;98327.47;6198845;28;96768;-61
2023/12/30 10:09:10;;;;;;;;;3.00;3.00;;;;;37.52;47.00;98318.88;6198788;28;96273;-61
2023/12/30 10:12:14;;;;;;;;;2.00;2.00;;;;;36.49;49.25;98329.91;6216576;28;96203;-61
2023/12/30 10:15:17;;;;;;;;;2.75;2.75;;;;;36.40;49.13;98324.75;6198995;28;97516;-61
2023/12/30 10:18:21;;;;;;;;;2.60;2.60;;;;;36.13;49.16;98328.41;6197996;28;96755;-61
2023/12/30 10:21:26;;;;;;;;;1.60;1.60;;;;;36.23;49.90;98321.97;6216499;28;96333;-61
2023/12/30 10:24:31;;;;;;;;;2.00;2.00;;;;;36.21;49.29;98339.25;6216352;28;97585;-61
2023/12/30 10:27:34;;;;;;;;;2.00;2.00;;;;;36.34;50.56;98354.44;6214144;28;99597;-61
2023/12/30 10:30:37;;;;;;;;;1.75;1.75;;;;;36.33;50.18;98340.78;6214177;28;96712;-61
2023/12/30 10:33:42;;;;;;;;;4.67;4.00;;;;;36.11;50.04;98340.03;6216024;28;96466;-61
2023/12/30 10:36:46;;;;;;;;;2.00;1.80;;;;;36.96;50.06;98373.44;6214086;28;96829;-60
2023/12/30 10:39:52;;;;;;;;;2.40;2.40;;;;;36.93;48.29;98351.81;6216199;28;96340;-60
2023/12/30 10:42:55;;;;;;;;;2.00;2.00;;;;;37.81;48.62;98344.78;6216260;28;96482;-60
2023/12/30 10:46:00;;;;;;;;;3.80;2.20;;;;;37.45;48.41;98361.13;6214662;28;96467;-61
2023/12/30 10:49:06;;;;;;;;;1.25;1.00;;;;;37.80;48.87;98362.06;6195979;28;96811;-61
2023/12/30 10:52:14;;;;;;;;;2.00;2.00;;;;;37.58;48.19;98365.06;6213940;28;96373;-61
2023/12/30 10:55:17;;;;;;;;;2.00;2.00;;;;;37.78;48.61;98358.88;6195068;28;97151;-61
2023/12/30 10:58:22;;;;;;;;;3.00;3.00;;;;;38.68;47.94;98380.09;6213841;28;96431;-61
2023/12/30 11:01:26;;;;;;;;;3.00;2.00;;;;;38.86;46.36;98375.81;6196965;28;97991;-61
2023/12/30 11:04:31;;;;;;;;;3.60;3.00;;;;;38.80;47.06;98383.16;6215251;28;96374;-61
2023/12/30 11:07:35;;;;;;;;;2.00;2.00;;;;;38.83;46.56;98393.59;6214937;28;96344;-61
2023/12/30 11:10:38;;;;;;;;;2.00;2.00;;;;;38.39;46.50;98390.88;6196561;28;98444;-61
2023/12/30 11:13:45;;;;;;;;;3.50;3.00;;;;;38.24;47.35;98400.69;6197152;28;96872;-61
2023/12/30 11:16:50;;;;;;;;;3.00;3.00;;;;;36.06;49.79;98385.34;6215784;28;96387;-61
2023/12/30 11:19:55;;;;;;;;;2.00;2.00;;;;;33.06;54.82;98388.94;6180409;28;96870;-61
2023/12/30 11:23:00;;;;;;;;;3.40;3.40;;;;;30.47;60.28;98389.41;6215335;28;97515;-60
2023/12/30 11:26:05;;;;;;;;;3.60;3.60;;;;;28.08;67.23;98401.97;6215226;28;96288;-60
2023/12/30 11:29:11;;;;;;;;;4.50;4.50;;;;;26.32;72.38;98389.06;6216837;28;96485;-58
2023/12/30 11:32:18;;;;;;;;;3.50;3.00;;;;;24.45;79.83;98396.47;6214945;28;97708;-59
2023/12/30 11:35:23;;;;;;;;;4.50;3.50;;;;;23.15;85.82;98402.72;6215396;28;96320;-58
2023/12/30 11:38:30;;;;;;;;;4.75;4.00;;;;;22.01;92.32;98403.25;6215031;28;96298;-58
2023/12/30 11:41:35;;;;;;;;;3.67;3.00;;;;;21.41;95.72;98403.34;6215316;28;96878;-58
2023/12/30 11:44:38;;;;;;;;;3.00;3.00;;;;;20.59;100.00;98416.81;6214724;28;96779;-58
2023/12/30 11:47:42;;;;;;;;;4.00;3.80;;;;;19.95;100.00;98409.25;6214532;28;96911;-58
2023/12/30 11:50:52;;;;;;;;;2.80;2.20;;;;;19.46;100.00;98420.50;6214570;28;96813;-58
2023/12/30 11:53:56;;;;;;;;;3.00;2.60;;;;;19.19;100.00;98415.59;6214903;28;96301;-58
2023/12/30 11:56:59;;;;;;;;;5.00;5.00;;;;;18.79;100.00;98421.41;6214354;28;96451;-58
2023/12/30 12:00:03;;;;;;;;;6.00;5.00;;;;;18.24;100.00;98414.44;6214075;28;96400;-58
2023/12/30 12:03:14;;;;;;;;;7.00;7.00;;;;;18.00;100.00;98445.13;6213942;28;96936;-58
2023/12/30 12:06:19;;;;;;;;;7.25;6.50;;;;;17.53;100.00;98442.84;6196442;28;96443;-58
2023/12/30 12:09:22;;;;;;;;;8.50;6.50;;;;;17.13;100.00;98451.09;6213876;28;96411;-58
2023/12/30 12:12:25;;;;;;;;;6.00;6.00;;;;;16.82;100.00;98459.28;6214258;28;96241;-58
2023/12/30 12:15:31;;;;;;;;;5.75;5.25;;;;;16.39;100.00;98463.28;6213280;28;96302;-58
2023/12/30 12:18:34;;;;;;;;;8.00;7.00;;;;;16.18;100.00;98480.63;6212853;28;96384;-58
2023/12/30 12:21:39;;;;;;;;;6.00;6.00;;;;;15.90;100.00;98475.66;6214001;28;96396;-58
2023/12/30 12:24:43;;;;;;;;;13.50;12.50;;;;;15.69;100.00;98479.34;6213897;28;96468;-58
2023/12/30 12:27:49;;;;;;;;;8.20;7.00;;;;;15.42;100.00;98495.75;6213237;28;96297;-58
2023/12/30 12:30:52;;;;;;;;;4.00;4.00;;;;;15.21;100.00;98494.81;6212907;28;96418;-58
2023/12/30 12:33:55;;;;;;;;;6.00;6.00;;;;;14.94;100.00;98491.34;6213686;28;96366;-58
2023/12/30 12:36:59;;;;;;;;;4.00;4.00;;;;;14.74;100.00;98500.13;6212583;28;96963;-58
2023/12/30 12:40:04;;;;;;;;;4.00;3.50;;;;;14.51;100.00;98506.72;6220923;28;96384;-55
2023/12/30 12:43:07;;;;;;;;;5.00;5.00;;;;;14.42;100.00;98516.34;6238373;28;96435;-55
2023/12/30 12:46:11;;;;;;;;;3.00;3.00;;;;;14.14;100.00;98500.31;6239763;28;96323;-56
2023/12/30 12:49:17;;;;;;;;;3.80;3.80;;;;;14.02;100.00;98497.75;6241188;28;97070;-55
2023/12/30 12:52:22;;;;;;;;;1.40;1.40;;;;;13.80;100.00;98505.03;6238466;28;96406;-55
2023/12/30 12:55:26;;;;;;;;;4.00;3.00;;;;;13.82;100.00;98506.44;6222556;28;97039;-55
2023/12/30 12:58:29;;;;;;;;;4.40;4.00;;;;;13.67;100.00;98517.06;6215706;28;96361;-55
2023/12/30 13:01:32;;;;;;;;;3.75;3.75;;;;;13.61;100.00;98509.13;6215695;28;96155;-55
2023/12/30 13:04:35;;;;;;;;;2.00;2.00;;;;;13.58;100.00;98513.16;6215470;28;96429;-55
2023/12/30 13:07:42;;;;;;;;;5.00;4.50;;;;;13.60;100.00;98524.56;6213856;28;96800;-55
2023/12/30 13:10:48;;;;;;;;;2.00;2.00;;;;;13.64;100.00;98539.22;6215322;28;96292;-54
2023/12/30 13:13:52;;;;;;;;;3.00;3.00;;;;;13.64;100.00;98527.56;6213666;28;96304;-55
2023/12/30 13:16:55;;;;;;;;;1.00;1.00;;;;;13.55;100.00;98529.91;6214858;28;96485;-55
2023/12/30 13:19:58;;;;;;;;;2.00;2.00;;;;;13.54;100.00;98527.44;6238870;28;96396;-54
2023/12/30 13:23:05;;;;;;;;;2.00;2.00;;;;;13.56;100.00;98519.88;6239519;28;96308;-54
2023/12/30 13:26:08;;;;;;;;;1.60;1.00;;;;;13.54;100.00;98530.97;6240163;28;96314;-54
2023/12/30 13:29:12;;;;;;;;;2.40;2.40;;;;;13.41;100.00;98542.16;6239469;28;96293;-55
2023/12/30 13:32:15;;;;;;;;;2.00;2.00;;;;;13.33;100.00;98548.81;6243978;28;96337;-55
2023/12/30 13:35:18;;;;;;;;;2.00;1.00;;;;;13.29;100.00;98552.28;6243124;28;96522;-55
2023/12/30 13:38:24;;;;;;;;;1.00;1.00;;;;;13.23;100.00;98564.91;6225395;28;96730;-55
2023/12/30 13:41:27;;;;;;;;;1.60;1.60;;;;;13.16;100.00;98555.28;6243907;28;96096;-55
2023/12/30 13:44:35;;;;;;;;;2.00;2.00;;;;;13.10;100.00;98558.94;6243045;28;96312;-55
2023/12/30 13:48:07;;;;;;;;;3.40;3.00;;;;;13.14;100.00;98566.38;6243442;28;96386;-54
2023/12/30 13:51:03;;;;;;;;;3.00;3.00;;;;;13.09;100.00;98568.97;6243463;28;96232;-55
2023/12/30 13:54:09;;;;;;;;;2.40;2.40;;;;;13.14;100.00;98569.09;6244898;28;96311;-55
2023/12/30 13:57:16;;;;;;;;;5.00;4.00;;;;;13.08;100.00;98574.63;6245984;28;96264;-55
2023/12/30 14:00:19;;;;;;;;;3.00;3.00;;;;;12.97;100.00;98568.22;6231786;28;97036;-56
2023/12/30 14:03:23;;;;;;;;;4.00;3.00;;;;;13.02;100.00;98574.53;6230209;28;97048;-56
2023/12/30 14:06:32;;;;;;;;;3.00;3.00;;;;;12.99;100.00;98582.34;6243460;28;96435;-55
2023/12/30 14:09:44;;;;;;;;;3.00;3.00;;;;;12.87;100.00;98573.44;6239715;28;96963;-55
2023/12/30 14:12:49;;;;;;;;;4.00;3.40;;;;;12.91;100.00;98571.88;6234611;28;96875;-55
2023/12/30 14:15:52;;;;;;;;;2.60;2.60;;;;;12.87;100.00;98562.63;6221853;28;96834;-56
2023/12/30 14:18:55;;;;;;;;;2.00;2.00;;;;;12.89;100.00;98560.50;6235619;28;96877;-56